Time;durP1;ratioP1;P1;durP2;ratioP2;P2;SDS_P1;SDS_P2;PMS_P1;PMS_P2;Temp;Humidity;BMP_temperature;BMP_pressure;BME280_temperature;BME280_humidity;BME280_pressure;Samples;Min_cycle;Max_cycle;Signal;HPM_P1;HPM_P2
2022/04/24 00:02:11;;;;;;;4.03;2.87;;;14.60;99.90;14.50;100101.00;;;;5091632;28;20214;-67
2022/04/24 00:04:37;;;;;;;3.37;2.90;;;14.60;99.90;14.30;100112.00;;;;5075502;28;20511;-67
2022/04/24 00:07:05;;;;;;;0.37;0.37;;;14.40;99.90;14.60;100107.00;;;;5075626;28;20263;-67
2022/04/24 00:09:31;;;;;;;1.43;1.43;;;14.50;99.90;14.70;100106.00;;;;5090771;28;20627;-67
2022/04/24 00:11:57;;;;;;;0.10;0.10;;;14.50;99.90;14.60;100110.00;;;;5075520;28;20201;-67
2022/04/24 00:14:28;;;;;;;0.57;0.57;;;14.50;99.90;14.40;100106.00;;;;5091228;28;20533;-67
2022/04/24 00:16:54;;;;;;;1.33;1.23;;;14.40;99.90;14.20;100101.00;;;;5090776;28;20188;-67
2022/04/24 00:19:22;;;;;;;3.23;2.70;;;14.30;99.90;14.20;100102.00;;;;5075047;28;20214;-67
2022/04/24 00:21:48;;;;;;;2.27;2.03;;;14.20;99.90;14.40;100105.00;;;;5075635;28;20184;-67
2022/04/24 00:24:14;;;;;;;1.70;1.03;;;14.40;99.90;14.50;100104.00;;;;5075568;28;20168;-67
2022/04/24 00:26:40;;;;;;;1.27;0.97;;;14.40;99.90;14.20;100107.00;;;;5090951;28;20271;-67
2022/04/24 00:29:06;;;;;;;0.33;0.33;;;14.30;99.90;14.20;100099.00;;;;5091316;28;20174;-67
2022/04/24 00:31:32;;;;;;;3.43;1.93;;;14.30;99.90;14.30;100091.00;;;;5090740;28;20221;-67
2022/04/24 00:33:58;;;;;;;2.30;2.20;;;14.30;99.90;14.30;100080.00;;;;5090489;28;20674;-67
2022/04/24 00:36:28;;;;;;;1.83;1.47;;;14.30;99.90;14.30;100103.00;;;;5075230;28;20176;-67
2022/04/24 00:38:57;;;;;;;0.53;0.53;;;14.30;99.90;14.20;100100.00;;;;5089556;28;20628;-67
2022/04/24 00:41:25;;;;;;;0.30;0.30;;;14.20;99.90;14.40;100100.00;;;;5075346;28;20233;-67
2022/04/24 00:43:53;;;;;;;0.30;0.30;;;14.30;99.90;14.30;100098.00;;;;5075269;28;20189;-67
2022/04/24 00:46:42;;;;;;;1.13;0.70;;;14.20;99.90;14.30;100109.00;;;;5090984;28;20266;-67
2022/04/24 00:49:15;;;;;;;1.40;1.03;;;14.10;99.90;14.00;100107.00;;;;5090112;28;20176;-67
2022/04/24 00:51:44;;;;;;;1.60;0.90;;;14.10;99.90;14.00;100095.00;;;;5073337;28;20208;-68
2022/04/24 00:54:11;;;;;;;1.33;1.03;;;14.00;99.90;14.10;100106.00;;;;5089662;28;20262;-68
2022/04/24 00:56:42;;;;;;;0.20;0.20;;;14.00;99.90;13.90;100107.00;;;;5090103;28;20179;-68
2022/04/24 00:59:12;;;;;;;1.43;1.00;;;13.90;99.90;14.10;100068.00;;;;5073223;28;20775;-68
2022/04/24 01:01:42;;;;;;;1.23;0.57;;;14.00;99.90;14.00;100109.00;;;;5090126;28;20202;-68
2022/04/24 01:04:10;;;;;;;0.53;0.53;;;14.00;99.90;13.80;100057.00;;;;5073116;28;20183;-68
2022/04/24 01:06:41;;;;;;;0.93;0.93;;;13.90;99.90;13.90;100073.00;;;;5090697;28;20175;-68
2022/04/24 01:09:17;;;;;;;1.47;1.37;;;13.80;99.90;13.70;100107.00;;;;5089638;28;20178;-68
2022/04/24 01:12:09;;;;;;;0.83;0.83;;;13.80;99.90;14.00;100111.00;;;;5090146;28;20254;-68
2022/04/24 01:14:38;;;;;;;0.30;0.30;;;13.90;99.90;13.70;100108.00;;;;5072699;28;20192;-68
2022/04/24 01:17:05;;;;;;;1.73;1.63;;;13.80;99.90;13.70;100109.00;;;;5074489;28;20182;-68
2022/04/24 01:19:34;;;;;;;1.33;0.83;;;13.80;99.90;13.70;100113.00;;;;5090117;28;20228;-68
2022/04/24 01:22:03;;;;;;;0.40;0.40;;;13.80;99.90;13.80;100113.00;;;;5089796;28;20190;-68
2022/04/24 01:24:29;;;;;;;0.40;0.40;;;13.70;99.90;13.80;100104.00;;;;5090068;28;20178;-68
2022/04/24 01:26:56;;;;;;;0.47;0.47;;;13.70;99.90;13.60;100062.00;;;;5089633;28;20176;-68
2022/04/24 01:29:25;;;;;;;1.23;1.17;;;13.70;99.90;13.60;100112.00;;;;5090059;28;20265;-67
2022/04/24 01:31:57;;;;;;;0.43;0.43;;;13.60;99.90;13.50;100110.00;;;;5073175;28;20681;-68
2022/04/24 01:34:26;;;;;;;1.40;0.97;;;13.60;99.90;13.40;100100.00;;;;5089747;28;20224;-68
2022/04/24 01:36:54;;;;;;;0.77;0.77;;;13.50;99.90;13.50;100099.00;;;;5089479;28;20671;-68
2022/04/24 01:39:20;;;;;;;0.87;0.87;;;13.50;99.90;13.50;100061.00;;;;5073962;28;20776;-68
2022/04/24 01:41:51;;;;;;;1.43;1.33;;;13.40;99.90;13.50;100104.00;;;;5073382;28;20205;-68
2022/04/24 01:44:22;;;;;;;0.27;0.27;;;13.40;99.90;13.40;100098.00;;;;5089245;28;20175;-68
2022/04/24 01:46:48;;;;;;;0.40;0.40;;;13.40;99.90;13.20;100102.00;;;;5089331;28;20175;-68
2022/04/24 01:49:17;;;;;;;1.40;1.30;;;13.30;99.90;13.20;100097.00;;;;5088759;28;20201;-68
2022/04/24 01:51:44;;;;;;;0.20;0.20;;;13.30;99.90;13.20;100095.00;;;;5073776;28;20205;-68
2022/04/24 01:54:13;;;;;;;0.80;0.80;;;13.20;99.90;13.30;100085.00;;;;5088828;28;20205;-68
2022/04/24 01:56:42;;;;;;;0.60;0.60;;;13.20;99.90;13.10;100092.00;;;;5088717;28;20533;-68
2022/04/24 01:59:14;;;;;;;0.27;0.27;;;13.20;99.90;13.20;100094.00;;;;5088783;28;20264;-68
2022/04/24 02:01:45;;;;;;;0.90;0.90;;;13.20;99.90;13.00;100081.00;;;;5072807;28;20529;-67
2022/04/24 02:04:11;;;;;;;0.73;0.70;;;13.00;99.90;13.00;100051.00;;;;5073783;28;20537;-68
2022/04/24 02:06:37;;;;;;;0.40;0.40;;;13.00;99.90;13.10;100082.00;;;;5088560;28;20179;-68
2022/04/24 02:09:08;;;;;;;0.67;0.57;;;13.10;99.90;12.90;100084.00;;;;5088831;28;20555;-68
2022/04/24 02:11:40;;;;;;;0.60;0.60;;;13.00;99.90;12.70;100086.00;;;;5088923;28;20676;-68
2022/04/24 02:14:08;;;;;;;3.07;1.73;;;12.90;99.90;12.70;100080.00;;;;5089454;28;20191;-68
2022/04/24 02:16:37;;;;;;;0.20;0.20;;;12.90;99.90;13.00;100067.00;;;;5088526;28;20197;-68
2022/04/24 02:19:02;;;;;;;0.53;0.53;;;12.90;99.90;12.80;100075.00;;;;5088968;28;20228;-68
2022/04/24 02:21:31;;;;;;;0.97;0.77;;;12.90;99.90;12.70;100089.00;;;;5089093;28;20186;-68
2022/04/24 02:24:00;;;;;;;0.40;0.40;;;12.80;99.90;12.70;100070.00;;;;5089118;28;20268;-67
2022/04/24 02:26:26;;;;;;;1.53;1.47;;;12.80;99.90;12.70;100083.00;;;;5072040;28;20716;-67
2022/04/24 02:28:54;;;;;;;0.57;0.53;;;12.80;99.90;12.60;100082.00;;;;5073216;28;20269;-67
2022/04/24 02:31:20;;;;;;;0.93;0.77;;;12.80;99.90;12.70;100066.00;;;;5072708;28;20215;-66
2022/04/24 02:33:48;;;;;;;0.53;0.53;;;12.80;99.90;12.70;100069.00;;;;5087867;28;20185;-66
2022/04/24 02:36:17;;;;;;;1.10;1.00;;;12.80;99.90;12.70;100068.00;;;;5088676;28;20620;-66
2022/04/24 02:38:46;;;;;;;1.63;1.53;;;12.70;99.90;12.60;100076.00;;;;5073182;28;20238;-66
2022/04/24 02:41:17;;;;;;;1.70;1.40;;;12.70;99.90;12.60;100069.00;;;;5088489;28;20260;-66
2022/04/24 02:43:42;;;;;;;0.40;0.40;;;12.70;99.90;12.70;100084.00;;;;5073177;28;20177;-66
2022/04/24 02:46:13;;;;;;;0.97;0.87;;;12.70;99.90;12.70;100082.00;;;;5088295;28;20306;-67
2022/04/24 02:48:59;;;;;;;0.20;0.20;;;12.80;99.90;12.70;100075.00;;;;5088372;28;20261;-67
2022/04/24 02:51:27;;;;;;;2.00;1.67;;;12.70;99.90;12.40;100028.00;;;;5072674;28;20707;-68
2022/04/24 02:53:52;;;;;;;1.07;1.07;;;12.60;99.90;12.50;100019.00;;;;5088441;28;20177;-68
2022/04/24 02:56:20;;;;;;;0.30;0.30;;;12.60;99.90;12.50;100070.00;;;;5072815;28;20523;-68
2022/04/24 02:58:49;;;;;;;4.50;1.67;;;12.60;99.90;12.40;100070.00;;;;5088025;28;20181;-68
2022/04/24 03:01:15;;;;;;;0.87;0.87;;;12.60;99.90;12.50;100067.00;;;;5088428;28;20696;-67
2022/04/24 03:03:45;;;;;;;1.17;1.07;;;12.60;99.90;12.60;100080.00;;;;5072834;28;20185;-67
2022/04/24 03:06:13;;;;;;;1.73;1.63;;;12.70;99.90;12.60;100081.00;;;;5088609;28;20236;-67
2022/04/24 03:08:42;;;;;;;0.60;0.60;;;12.70;99.90;12.50;100081.00;;;;5072777;28;20649;-67
2022/04/24 03:11:10;;;;;;;4.37;1.90;;;12.60;99.90;12.50;100083.00;;;;5088341;28;20518;-67
2022/04/24 03:13:38;;;;;;;2.03;1.23;;;12.70;99.90;12.50;100033.00;;;;5088513;28;20688;-67
2022/04/24 03:16:10;;;;;;;1.33;1.23;;;12.70;99.90;12.40;100079.00;;;;5088208;28;20177;-67
2022/04/24 03:18:38;;;;;;;1.03;0.97;;;12.70;99.90;12.30;100067.00;;;;5089836;28;20581;-67
2022/04/24 03:21:04;;;;;;;3.07;2.30;;;12.60;99.90;12.30;100064.00;;;;5092269;28;20183;-67
2022/04/24 03:23:30;;;;;;;2.67;2.37;;;12.50;99.90;12.30;100061.00;;;;5091823;28;20185;-67
2022/04/24 03:25:59;;;;;;;1.27;1.13;;;12.50;99.90;12.40;100066.00;;;;5092270;28;20177;-68
2022/04/24 03:28:25;;;;;;;0.70;0.70;;;12.50;99.90;12.40;100062.00;;;;5091413;28;20178;-67
2022/04/24 03:30:53;;;;;;;1.30;1.10;;;12.50;99.90;12.40;100078.00;;;;5076389;28;20227;-68
2022/04/24 03:33:22;;;;;;;2.63;1.73;;;12.50;99.90;12.20;100070.00;;;;5074854;28;20625;-67
2022/04/24 03:35:50;;;;;;;0.90;0.90;;;12.50;99.90;12.30;100065.00;;;;5092020;28;20686;-67
2022/04/24 03:38:16;;;;;;;2.17;1.97;;;12.50;99.90;12.30;100060.00;;;;5090997;28;20174;-67
2022/04/24 03:40:42;;;;;;;1.33;1.23;;;12.50;99.90;12.20;100078.00;;;;5092112;28;20187;-67
2022/04/24 03:43:10;;;;;;;3.53;2.97;;;12.40;99.90;12.10;100073.00;;;;5075932;28;20208;-67
2022/04/24 03:45:41;;;;;;;0.17;0.17;;;12.40;99.90;12.40;100078.00;;;;5076060;28;20179;-67
2022/04/24 03:48:09;;;;;;;2.83;2.27;;;12.40;99.90;12.00;100073.00;;;;5090918;28;20636;-67
2022/04/24 03:50:35;;;;;;;1.03;1.00;;;12.40;99.90;12.30;100027.00;;;;5091098;28;20173;-67
2022/04/24 03:53:01;;;;;;;1.57;1.47;;;12.40;99.90;12.50;100070.00;;;;5091416;28;20213;-67
2022/04/24 03:55:30;;;;;;;2.53;1.30;;;12.40;99.90;12.10;100055.00;;;;5091666;28;20182;-68
2022/04/24 03:57:58;;;;;;;3.17;2.27;;;12.30;99.90;12.00;100020.00;;;;5075759;28;20236;-66
2022/04/24 04:00:24;;;;;;;0.83;0.83;;;12.30;99.90;12.20;99929.00;;;;5091090;28;20178;-68
2022/04/24 04:02:53;;;;;;;4.37;2.20;;;12.30;99.90;12.10;100077.00;;;;5090920;28;20261;-67
2022/04/24 04:05:20;;;;;;;2.37;2.10;;;12.30;99.90;12.10;100068.00;;;;5091305;28;20218;-67
2022/04/24 04:07:47;;;;;;;1.83;1.73;;;12.30;99.90;12.10;100069.00;;;;5091088;28;20201;-67
2022/04/24 04:10:16;;;;;;;1.67;1.57;;;12.30;99.90;12.50;100073.00;;;;5091410;28;20184;-67
2022/04/24 04:12:42;;;;;;;0.93;0.90;;;12.40;99.90;12.20;100062.00;;;;5090987;28;20692;-67
2022/04/24 04:15:11;;;;;;;0.60;0.40;;;12.30;99.90;12.20;100073.00;;;;5075788;28;20182;-67
2022/04/24 04:17:37;;;;;;;1.47;1.37;;;12.30;99.90;12.00;100065.00;;;;5091157;28;20178;-67
2022/04/24 04:20:03;;;;;;;2.37;2.00;;;12.30;99.90;11.90;100073.00;;;;5075282;28;20210;-68
2022/04/24 04:22:32;;;;;;;1.13;1.13;;;12.20;99.90;12.00;100035.00;;;;5074857;28;20185;-67
2022/04/24 04:25:00;;;;;;;1.33;1.23;;;12.20;99.90;11.90;100065.00;;;;5068849;28;20180;-68
2022/04/24 04:27:26;;;;;;;0.70;0.70;;;12.20;99.90;12.00;100078.00;;;;5064143;28;20186;-67
2022/04/24 04:29:53;;;;;;;2.03;1.53;;;12.20;99.90;11.80;100074.00;;;;5090689;28;20196;-67
2022/04/24 04:32:22;;;;;;;1.33;1.23;;;12.10;99.90;11.90;100074.00;;;;5073869;28;20251;-67
2022/04/24 04:34:48;;;;;;;1.70;1.60;;;12.10;99.90;11.70;100077.00;;;;5073952;28;20514;-66
2022/04/24 04:37:17;;;;;;;1.90;1.80;;;11.90;99.90;11.50;100081.00;;;;5073968;28;20177;-66
2022/04/24 04:39:43;;;;;;;2.63;1.47;;;11.80;99.90;11.70;100077.00;;;;5075013;28;20181;-67
2022/04/24 04:42:09;;;;;;;1.20;1.07;;;11.80;99.90;11.50;100074.00;;;;5073532;28;20570;-68
2022/04/24 04:44:37;;;;;;;1.50;1.40;;;11.80;99.90;11.30;100070.00;;;;5074878;28;20173;-67
2022/04/24 04:47:03;;;;;;;0.63;0.63;;;11.70;99.90;11.40;100081.00;;;;5073598;28;20184;-68
2022/04/24 04:49:32;;;;;;;2.67;2.20;;;11.70;99.90;11.30;100074.00;;;;5073936;28;20241;-68
2022/04/24 04:51:58;;;;;;;6.23;1.87;;;11.60;99.90;11.40;100081.00;;;;5074784;28;20209;-68
2022/04/24 04:54:24;;;;;;;2.23;1.97;;;11.60;99.90;11.30;100089.00;;;;5056756;28;20185;-68
2022/04/24 04:56:49;;;;;;;1.37;1.27;;;11.70;99.90;11.50;100084.00;;;;5074539;28;20660;-68
2022/04/24 04:59:15;;;;;;;2.43;2.13;;;11.70;99.90;11.20;100064.00;;;;5074800;28;20713;-68
2022/04/24 05:01:41;;;;;;;1.77;1.67;;;11.60;99.90;11.20;100033.00;;;;5074908;28;20595;-68
2022/04/24 05:04:06;;;;;;;0.90;0.90;;;11.50;99.90;11.30;100077.00;;;;5074316;28;20552;-68
2022/04/24 05:06:37;;;;;;;2.70;1.80;;;11.50;99.90;11.00;100086.00;;;;5074545;28;20183;-67
2022/04/24 05:09:04;;;;;;;0.63;0.63;;;11.50;99.90;11.30;100081.00;;;;5074007;28;20306;-67
2022/04/24 05:11:31;;;;;;;1.60;1.50;;;11.50;99.90;11.30;100102.00;;;;5072827;28;20338;-67
2022/04/24 05:13:57;;;;;;;1.13;1.03;;;11.50;99.90;11.40;100089.00;;;;5073109;28;20181;-68
2022/04/24 05:16:29;;;;;;;3.70;1.53;;;11.60;99.90;11.20;100082.00;;;;5073211;28;20621;-67
2022/04/24 05:18:55;;;;;;;1.73;1.40;;;11.50;99.90;11.30;100075.00;;;;5073785;28;20201;-67
2022/04/24 05:21:20;;;;;;;1.80;1.17;;;11.60;99.90;11.40;100097.00;;;;5074105;28;20210;-67
2022/04/24 05:23:52;;;;;;;1.57;1.07;;;11.60;99.90;11.20;100093.00;;;;5072836;28;20586;-68
2022/04/24 05:26:19;;;;;;;2.53;2.00;;;11.60;99.90;11.00;100098.00;;;;5073196;28;20165;-68
2022/04/24 05:28:45;;;;;;;3.20;2.90;;;11.50;99.90;11.40;100099.00;;;;5072907;28;20238;-68
2022/04/24 05:31:19;;;;;;;1.50;1.40;;;11.60;99.90;11.70;100111.00;;;;5074014;28;20220;-68
2022/04/24 05:33:45;;;;;;;1.80;1.70;;;11.90;99.90;11.90;100079.00;;;;5089185;28;20184;-68
2022/04/24 05:36:11;;;;;;;4.70;1.77;;;12.10;99.90;12.00;100140.00;;;;5089657;28;20184;-68
2022/04/24 05:38:39;;;;;;;2.63;2.20;;;12.40;99.90;12.00;100096.00;;;;5072433;28;20297;-68
2022/04/24 05:41:05;;;;;;;2.53;1.50;;;12.30;99.90;12.60;100113.00;;;;5072067;28;20184;-68
2022/04/24 05:43:31;;;;;;;1.47;1.37;;;12.80;99.90;13.20;100154.00;;;;5073823;28;20186;-68
2022/04/24 05:45:57;;;;;;;4.23;3.10;;;13.10;99.90;13.30;100160.00;;;;5074025;28;20270;-67
2022/04/24 05:48:26;;;;;;;1.57;1.00;;;13.30;99.90;13.40;100168.00;;;;5072542;28;20176;-67
2022/04/24 05:50:54;;;;;;;2.97;2.47;;;13.30;99.90;13.00;100141.00;;;;5072451;28;20180;-67
2022/04/24 05:53:21;;;;;;;2.20;2.03;;;13.50;99.90;12.60;100169.00;;;;5073345;28;20209;-68
2022/04/24 05:55:46;;;;;;;0.83;0.73;;;13.10;99.90;13.10;100172.00;;;;5072328;28;20199;-67
2022/04/24 05:58:14;;;;;;;1.40;1.30;;;13.20;99.90;13.30;100148.00;;;;5072222;28;20216;-68
2022/04/24 06:00:50;;;;;;;1.70;1.40;;;13.40;99.90;13.50;100180.00;;;;5073377;28;20205;-67
2022/04/24 06:03:15;;;;;;;4.10;3.70;;;13.70;99.90;13.80;100188.00;;;;5073730;28;20220;-67
2022/04/24 06:05:41;;;;;;;2.87;2.40;;;14.00;99.90;13.30;100180.00;;;;5072828;28;20598;-67
2022/04/24 06:08:10;;;;;;;3.00;2.43;;;13.80;99.90;13.30;100183.00;;;;5071976;28;20187;-67
2022/04/24 06:10:41;;;;;;;1.53;1.23;;;13.70;99.90;13.90;100166.00;;;;5073251;28;20169;-67
2022/04/24 06:13:07;;;;;;;0.53;0.53;;;13.90;99.90;14.90;100209.00;;;;5072315;28;20208;-67
2022/04/24 06:15:33;;;;;;;3.37;2.80;;;14.70;99.90;13.90;100216.00;;;;5071929;28;20178;-67
2022/04/24 06:17:59;;;;;;;1.43;1.33;;;14.50;99.90;14.10;100217.00;;;;5072188;28;20180;-66
2022/04/24 06:20:29;;;;;;;4.13;2.90;;;14.40;99.90;13.80;100209.00;;;;5073366;28;20191;-67
2022/04/24 06:22:57;;;;;;;3.77;3.13;;;14.20;99.90;13.80;100220.00;;;;5072881;28;20179;-67
2022/04/24 06:25:30;;;;;;;2.10;2.00;;;14.20;99.90;13.40;100208.00;;;;5072335;28;20242;-67
2022/04/24 06:27:56;;;;;;;1.17;1.17;;;14.10;99.90;12.90;100213.00;;;;5072140;28;20175;-67
2022/04/24 06:30:25;;;;;;;3.37;2.63;;;13.70;99.90;12.10;100158.00;;;;5073107;28;20184;-68
2022/04/24 06:32:51;;;;;;;2.40;2.30;;;13.00;99.90;12.50;100187.00;;;;5071673;28;20576;-67
2022/04/24 06:35:21;;;;;;;2.03;1.40;;;12.70;99.90;12.40;100199.00;;;;5071785;28;20195;-68
2022/04/24 06:37:53;;;;;;;2.70;2.50;;;12.70;99.90;11.90;100179.00;;;;5071919;28;20673;-67
2022/04/24 06:40:19;;;;;;;2.73;2.53;;;12.40;99.90;11.80;100157.00;;;;5072476;28;20536;-67
2022/04/24 06:43:01;;;;;;;2.83;2.63;;;12.30;99.90;12.00;100110.00;;;;5072012;28;20681;-67
2022/04/24 06:45:32;;;;;;;2.57;2.37;;;12.30;99.90;12.10;100156.00;;;;5071924;28;20179;-68
2022/04/24 06:48:04;;;;;;;3.60;2.90;;;12.40;99.90;12.20;100166.00;;;;5088550;28;20258;-68
2022/04/24 06:50:34;;;;;;;1.33;1.27;;;12.50;99.90;13.80;100185.00;;;;5072096;28;20192;-66
2022/04/24 06:53:03;;;;;;;0.70;0.63;;;13.40;99.90;15.50;100234.00;;;;5058771;28;20220;-68
2022/04/24 06:55:31;;;;;;;3.63;2.73;;;14.60;99.90;14.60;100243.00;;;;5087730;28;20189;-68
2022/04/24 06:57:58;;;;;;;1.07;1.07;;;15.00;99.90;14.70;100226.00;;;;5074250;28;20228;-67
2022/04/24 07:00:28;;;;;;;2.70;2.60;;;14.80;99.90;14.50;100241.00;;;;5084680;28;20201;-67
2022/04/24 07:02:55;;;;;;;1.70;1.60;;;14.80;99.90;14.20;100247.00;;;;5092673;28;20177;-67
2022/04/24 07:05:26;;;;;;;1.67;1.57;;;14.50;99.90;14.60;100220.00;;;;5092582;28;20187;-64
2022/04/24 07:07:52;;;;;;;25.17;1.60;;;14.70;99.90;14.70;100214.00;;;;5064212;28;20189;-67
2022/04/24 07:10:18;;;;;;;4.17;2.63;;;14.80;99.90;14.00;100190.00;;;;5076653;28;20240;-68
2022/04/24 07:12:45;;;;;;;1.03;1.03;;;14.40;99.90;14.50;100241.00;;;;5075866;28;20224;-67
2022/04/24 07:15:13;;;;;;;0.60;0.60;;;14.70;99.90;14.40;100238.00;;;;5075688;28;20184;-65
2022/04/24 07:17:43;;;;;;;2.10;1.57;;;14.70;99.90;14.50;100256.00;;;;5076260;28;20180;-67
2022/04/24 07:20:19;;;;;;;3.93;3.47;;;14.70;99.90;13.70;100250.00;;;;5075182;28;20206;-65
2022/04/24 07:22:45;;;;;;;0.60;0.60;;;14.30;99.90;14.70;100259.00;;;;5075172;28;20596;-66
2022/04/24 07:25:19;;;;;;;1.47;1.37;;;14.70;99.90;14.60;100253.00;;;;5076387;28;20189;-66
2022/04/24 07:27:48;;;;;;;1.73;1.63;;;14.70;99.90;14.50;100260.00;;;;5092265;28;20179;-66
2022/04/24 07:30:16;;;;;;;0.87;0.87;;;14.80;99.90;15.10;100265.00;;;;5091425;28;20186;-67
2022/04/24 07:32:45;;;;;;;2.17;1.97;;;15.30;99.90;15.50;100274.00;;;;5091615;28;20369;-67
2022/04/24 07:35:20;;;;;;;1.50;1.40;;;15.60;99.90;15.40;100273.00;;;;5091930;28;20179;-67
2022/04/24 07:37:47;;;;;;;1.13;1.03;;;15.70;99.90;15.10;100276.00;;;;5084034;28;20649;-67
2022/04/24 07:40:19;;;;;;;2.63;2.43;;;15.50;99.90;15.10;100277.00;;;;5074722;28;20191;-67
2022/04/24 07:43:01;;;;;;;3.10;2.27;;;15.50;99.90;15.00;100292.00;;;;5088638;28;20191;-68
2022/04/24 07:46:01;;;;;;;1.37;1.27;;;15.70;99.90;15.30;100291.00;;;;5077224;28;20235;-67
2022/04/24 07:48:27;;;;;;;3.37;3.07;;;15.50;99.90;14.80;100284.00;;;;5074339;28;20221;-67
2022/04/24 07:50:55;;;;;;;2.97;2.67;;;15.20;99.90;15.10;100288.00;;;;5076011;28;20209;-67
2022/04/24 07:53:25;;;;;;;3.80;2.67;;;15.40;99.90;14.90;100294.00;;;;5075844;28;20236;-69
2022/04/24 07:55:54;;;;;;;2.00;1.77;;;15.20;99.90;15.70;100292.00;;;;5074498;28;20182;-70
2022/04/24 07:58:22;;;;;;;3.70;2.67;;;15.70;99.90;15.30;100300.00;;;;5074584;28;20637;-68
2022/04/24 08:00:48;;;;;;;1.67;1.57;;;15.90;99.90;15.10;100300.00;;;;5074541;28;20189;-68
2022/04/24 08:03:19;;;;;;;0.65;0.65;;;15.50;99.90;15.60;100307.00;;;;5073978;28;20264;-67
2022/04/24 08:05:51;;;;;;;0.82;0.80;;;15.60;99.90;16.20;100298.00;;;;5073693;28;20164;-67
2022/04/24 08:08:46;;;;;;;2.90;2.70;;;16.10;99.90;16.30;100306.00;;;;5075624;28;20195;-68
2022/04/24 08:11:15;;;;;;;1.63;1.40;;;16.50;99.90;16.00;100317.00;;;;5057629;28;20183;-73
2022/04/24 08:13:52;;;;;;;1.80;1.70;;;16.10;99.90;16.20;100311.00;;;;5053740;28;20181;-69
2022/04/24 08:16:26;;;;;;;1.25;1.13;;;16.30;99.90;16.60;100319.00;;;;5054562;28;20177;-67
2022/04/24 08:19:01;;;;;;;7.95;2.40;;;16.50;99.90;16.90;100326.00;;;;5053994;28;20190;-68
2022/04/24 08:21:27;;;;;;;1.25;1.23;;;16.90;99.90;16.90;100341.00;;;;5054412;28;20192;-69
2022/04/24 08:24:01;;;;;;;0.28;0.28;;;17.00;99.90;16.80;100340.00;;;;5054495;28;20177;-68
2022/04/24 08:26:36;;;;;;;2.17;2.00;;;16.70;99.90;16.30;100322.00;;;;5055631;28;20181;-69
2022/04/24 08:29:06;;;;;;;1.07;0.73;;;16.60;99.90;17.20;100343.00;;;;5053072;28;20598;-70
2022/04/24 08:31:37;;;;;;;2.35;2.13;;;17.10;99.90;17.20;100306.00;;;;5054101;28;20220;-70
2022/04/24 08:34:06;;;;;;;2.33;1.92;;;17.40;99.90;17.00;100346.00;;;;5054182;28;20181;-69
2022/04/24 08:36:39;;;;;;;2.85;2.55;;;17.20;99.90;16.40;100344.00;;;;5052991;28;20174;-70
2022/04/24 08:39:09;;;;;;;2.08;1.90;;;16.80;99.90;16.70;100352.00;;;;5055157;28;20177;-70
2022/04/24 08:41:40;;;;;;;2.28;1.27;;;17.00;99.90;17.10;100343.00;;;;5053748;28;20239;-68
2022/04/24 08:44:08;;;;;;;2.43;1.50;;;17.10;99.90;16.50;100301.00;;;;5052940;28;20244;-70
2022/04/24 08:46:34;;;;;;;1.57;1.47;;;16.70;99.90;16.90;100345.00;;;;5052941;28;20629;-69
2022/04/24 08:49:02;;;;;;;0.75;0.75;;;16.80;99.90;17.30;100318.00;;;;5053198;28;20208;-70
2022/04/24 08:51:28;;;;;;;2.90;2.15;;;17.20;99.90;18.10;100365.00;;;;5053100;28;20211;-70
2022/04/24 08:53:56;;;;;;;0.93;0.85;;;17.60;99.90;17.70;100370.00;;;;5053592;28;20168;-70
2022/04/24 08:56:23;;;;;;;6.35;2.30;;;17.60;99.90;17.60;100375.00;;;;5053595;28;20278;-70
2022/04/24 08:59:10;;;;;;;1.77;1.50;;;17.70;99.90;17.40;100373.00;;;;5053961;28;20659;-70
2022/04/24 09:01:45;;;;;;;2.40;2.27;;;17.40;99.90;17.30;100378.00;;;;5087896;28;20634;-69
2022/04/24 09:07:33;;;;;;;1.55;1.45;;;17.70;99.90;17.20;100371.00;;;;5087150;28;20204;-70
2022/04/24 09:10:13;;;;;;;2.67;1.98;;;17.60;99.90;18.30;100375.00;;;;5089355;28;20171;-70
2022/04/24 09:13:03;;;;;;;3.65;2.10;;;18.20;99.90;18.30;100387.00;;;;5089143;28;20240;-70
2022/04/24 09:18:46;;;;;;;0.80;0.80;;;18.00;99.90;17.70;100393.00;;;;5074054;28;20276;-68
2022/04/24 09:21:15;;;;;;;2.40;1.58;;;17.90;99.90;17.50;100363.00;;;;5088739;28;20261;-69
2022/04/24 09:23:49;;;;;;;2.28;1.70;;;17.80;99.90;18.00;100337.00;;;;5072691;28;20329;-69
2022/04/24 09:26:22;;;;;;;2.30;1.27;;;17.90;99.90;18.20;100300.00;;;;5073076;28;20180;-69
2022/04/24 09:29:12;;;;;;;2.43;2.23;;;18.10;99.90;17.20;100349.00;;;;5089627;28;20164;-69
2022/04/24 09:32:10;;;;;;;1.55;1.45;;;17.60;99.90;18.00;100341.00;;;;5071921;28;20207;-69
2022/04/24 09:35:23;;;;;;;5.18;2.78;;;17.80;99.90;18.30;100322.00;;;;5071536;28;20198;-70
2022/04/24 09:38:13;;;;;;;2.67;2.42;;;18.30;99.90;18.60;100316.00;;;;5072431;28;20181;-70
2022/04/24 09:41:33;;;;;;;1.80;1.42;;;18.60;99.90;19.10;100315.00;;;;5073437;28;20192;-70
2022/04/24 09:44:37;;;;;;;2.13;1.85;;;18.90;99.90;18.80;100290.00;;;;5072118;28;20860;-71
2022/04/24 09:47:30;;;;;;;0.40;0.40;;;18.90;99.90;19.10;100303.00;;;;5071228;28;20186;-70
2022/04/24 09:50:00;;;;;;;1.92;1.83;;;18.70;99.90;18.50;100317.00;;;;5071727;28;20181;-70
2022/04/24 09:53:09;;;;;;;1.75;1.50;;;18.90;99.90;18.90;100311.00;;;;5088925;28;20299;-69
2022/04/24 09:55:50;;;;;;;1.38;1.23;;;18.70;99.90;19.40;100306.00;;;;5055060;28;20201;-71
2022/04/24 09:58:29;;;;;;;1.45;1.35;;;19.10;99.90;19.20;100316.00;;;;5071767;28;20177;-71
2022/04/24 10:01:18;;;;;;;0.88;0.77;;;19.30;99.90;19.30;100305.00;;;;5072072;28;20659;-71
2022/04/24 10:03:46;;;;;;;8.35;3.08;;;19.40;99.90;19.30;100312.00;;;;5087201;28;20185;-71
2022/04/24 10:06:15;;;;;;;3.05;2.63;;;19.30;99.90;19.20;100301.00;;;;5073356;28;20629;-71
2022/04/24 10:08:47;;;;;;;5.25;3.65;;;19.40;99.90;18.70;100325.00;;;;5085987;28;20184;-71
2022/04/24 10:11:30;;;;;;;1.80;1.70;;;19.10;99.90;19.00;100306.00;;;;5087745;28;20192;-72
2022/04/24 10:14:04;;;;;;;1.05;1.00;;;18.90;99.90;19.80;100303.00;;;;5087763;28;20580;-71
2022/04/24 10:17:17;;;;;;;4.07;3.17;;;19.50;99.90;19.10;100303.00;;;;5087219;28;20196;-71
2022/04/24 10:20:20;;;;;;;2.90;2.33;;;19.70;99.90;19.20;100320.00;;;;5072044;28;20611;-72
2022/04/24 10:33:26;;;;;;;4.82;3.55;;;19.00;99.90;19.40;100321.00;;;;5144127;27;20529;-73
2022/04/24 10:35:59;;;;;;;1.75;1.65;;;19.40;99.90;19.60;100318.00;;;;5106496;28;20257;-72
2022/04/24 10:38:30;;;;;;;1.52;1.40;;;19.30;99.90;19.70;100309.00;;;;5090422;28;20190;-73
2022/04/24 10:40:59;;;;;;;2.58;2.35;;;19.60;99.90;19.40;100320.00;;;;5106466;28;20388;-73
2022/04/24 10:43:41;;;;;;;2.92;1.52;;;19.40;99.90;19.60;100317.00;;;;5088504;28;20204;-73
2022/04/24 10:46:47;;;;;;;0.63;0.63;;;19.30;99.90;19.90;100315.00;;;;5089379;28;20176;-73
2022/04/24 10:49:18;;;;;;;2.63;2.05;;;19.80;99.90;19.00;100336.00;;;;5090136;28;20207;-73
2022/04/24 10:52:08;;;;;;;4.10;3.72;;;19.40;99.90;19.00;100332.00;;;;5105843;28;20208;-73
2022/04/24 10:54:45;;;;;;;2.40;2.20;;;19.30;99.90;18.90;100336.00;;;;5088762;28;20243;-72
2022/04/24 10:57:27;;;;;;;1.70;1.05;;;19.20;99.90;20.20;100299.00;;;;5089921;28;20168;-72
2022/04/24 10:59:55;;;;;;;2.95;2.42;;;19.70;99.90;20.80;100325.00;;;;5090019;28;20180;-73
2022/04/24 11:02:28;;;;;;;1.60;1.00;;;20.30;99.60;20.70;100309.00;;;;5105993;28;20533;-72
2022/04/24 11:05:05;;;;;;;3.38;3.05;;;20.50;99.30;19.30;100321.00;;;;5105477;28;20177;-72
2022/04/24 11:07:32;;;;;;;2.53;2.33;;;20.10;99.20;19.50;100320.00;;;;5105608;28;20183;-72
2022/04/24 11:10:10;;;;;;;4.10;3.38;;;19.60;99.70;19.50;100342.00;;;;5105851;28;20190;-72
2022/04/24 11:12:40;;;;;;;1.75;1.45;;;19.80;99.30;19.60;100338.00;;;;5104018;28;20208;-73
2022/04/24 11:15:24;;;;;;;2.35;2.25;;;19.80;98.90;19.80;100319.00;;;;5087713;28;20200;-72
2022/04/24 11:17:52;;;;;;;2.35;2.15;;;19.90;98.60;19.80;100321.00;;;;5105321;28;20183;-73
2022/04/24 11:20:19;;;;;;;3.30;2.40;;;19.90;98.70;20.50;100310.00;;;;5088810;28;20177;-72
2022/04/24 11:22:55;;;;;;;4.82;2.35;;;20.20;98.70;20.00;100322.00;;;;5089884;28;20628;-72